Monatstabelle

Bitte in den Auwahlmenüs den gewünschte Zeiraum wählen und die Schaltfläche "Anfrage absenden" betätigen. Beginn der Aufzeichnung ist 2007 - Dezember. Vor diesem Zeitraum sind keine Daten verfügbar.

2017 - August

 

Datum Temperatur (°C) Luftdruck (hPa) Luftfeuchte (%) Regen
(l/m²)
Wind (km/h)
avg: min: max: avg: min: max: avg: min: max: avg: max:
01.08.2017 29,1 22,4 34,6 1015,8 1014,7 1018,0 51 38 70 0,0 9,7 17,5
02.08.2017 27,0 21,9 33,9 1017,9 1014,9 1018,8 56 36 77 0,0 5,3 15,1
03.08.2017 25,1 17,9 37,1 1014,5 1012,2 1017,6 66 29 81 0,7 3,8 14,6
04.08.2017 25,8 21,2 33,1 1013,2 1010,9 1014,9 73 45 87 8,0 4,9 15,3
05.08.2017 23,6 19,9 28,5 1014,3 1012,4 1016,4 75 56 90 3,0 1,8 8,7
06.08.2017 17,9 15,7 22,5 1018,0 1014,1 1019,9 90 81 91 13,2 1,5 15,4
07.08.2017 18,8 14,3 24,4 1018,5 1017,1 1020,7 72 48 93 0,4 3,1 12,1
08.08.2017 21,7 16,9 25,1 1013,8 1012,1 1017,4 73 63 82 0,0 8,3 14,2
09.08.2017 23,9 16,6 30,5 1014,6 1012,4 1018,0 71 49 85 0,0 1,2 12,1
10.08.2017 24,4 17,8 32,5 1013,4 1012,2 1017,3 75 48 89 22,8 4,6 12,7
11.08.2017 19,1 16,1 24,7 1011,5 1009,7 1015,3 84 72 93 2,5 1,3 12,7
12.08.2017 17,2 12,2 22,3 1015,8 1012,0 1016,8 66 52 87 0,0 4,7 14,5
13.08.2017 18,1 14,6 22,5 1018,1 1015,2 1019,6 73 58 83 0,0 2,8 13,5
14.08.2017 20,0 13,1 27,7 1019,8 1018,7 1021,3 69 47 91 0,0 1,3 6,6
15.08.2017 22,2 13,3 30,1 1017,8 1017,1 1020,1 62 42 88 0,0 2,2 12,1
16.08.2017 21,1 15,5 29,3 1019,1 1016,6 1019,8 72 49 85 0,0 1,6 10,0
17.08.2017 22,2 15,6 29,9 1018,1 1016,4 1020,3 70 48 89 0,0 1,3 7,9
18.08.2017 25,8 17,1 32,7 1014,3 1011,7 1018,0 58 40 87 0,0 4,2 10,6
19.08.2017 17,7 14,8 25,1 1016,7 1011,8 1018,6 82 52 88 12,4 2,2 11,3
20.08.2017 16,2 11,8 22,5 1018,8 1016,9 1020,1 76 52 91 3,2 2,0 12,4
21.08.2017 14,4 9,2 21,5 1019,9 1018,5 1021,0 70 46 91 0,0 3,2 12,2
22.08.2017 16,6 8,8 23,9 1017,9 1015,9 1021,3 65 43 89 0,0 0,9 7,6
23.08.2017 16,3 10,0 23,7 1017,1 1015,9 1019,2 69 47 87 0,0 0,6 10,3
24.08.2017 21,8 10,0 29,3 1016,2 1015,3 1017,9 64 46 91 0,0 2,6 11,6
25.08.2017 23,9 17,2 30,9 1017,4 1015,6 1019,4 63 41 85 0,0 2,4 8,9
26.08.2017 23,1 16,6 32,1 1015,5 1014,2 1017,8 69 45 88 0,0 0,7 8,4
27.08.2017 24,8 19,2 34,0 1014,7 1012,5 1016,4 58 35 81 0,0 1,7 15,3
28.08.2017 19,0 14,9 24,9 1017,1 1016,1 1018,8 70 52 82 0,0 2,1 8,4
29.08.2017 19,7 11,1 27,1 1016,8 1015,3 1019,6 60 39 90 0,0 4,7 8,0
30.08.2017 21,8 12,7 29,3 1013,7 1011,9 1015,7 58 43 83 0,0 6,0 11,7
31.08.2017 23,0 14,2 31,9 1012,7 1010,0 1013,9 65 42 83 0,0 1,7 10,9
avg. 21,3 1016,2 69   ---
  Summe Regen: 66,0  
 
Min-Datum 22.08.2017 11.08.2017 03.08.2017 --- ---
Min-Zeit 05:58 16:16 12:52 --- ---
Minimum 8,8 1009,7 29 --- ---
 

Max-Datum

03.08.2017 14.08.2017 07.08.2017 10.08.2017 01.08.2017
Max-Zeit 14:42 11:38 07:38 21:40 10:02
Maximum 37,1 1021,3 93 22,8 17,5
 

 

  Letztes Jahr
gleiches Monat
Eistage max < 0°C 0 0
Frosttage min < 0°C 0 0
Sommertage max >=25°C 21 19
Heiße Tage max >=30°C 12 2

 

<<< nach oben >>>